Time;durP1;ratioP1;P1;durP2;ratioP2;P2;SDS_P1;SDS_P2;PMS_P1;PMS_P2;Temp;Humidity;BMP_temperature;BMP_pressure;BME280_temperature;BME280_humidity;BME280_pressure;Samples;Min_cycle;Max_cycle;Signal;HPM_P1;HPM_P2
2022/04/17 00:01:42;;;;;;;10.80;8.43;;;;;;;8.37;100.00;92904.75;5029146;28;20058;-79
2022/04/17 00:04:10;;;;;;;10.98;8.70;;;;;;;8.29;100.00;92896.34;5029451;28;20492;-79
2022/04/17 00:06:39;;;;;;;10.98;8.90;;;;;;;8.34;100.00;92908.50;5029055;28;20045;-79
2022/04/17 00:09:05;;;;;;;11.13;8.20;;;;;;;8.42;100.00;92935.66;5029539;28;20446;-78
2022/04/17 00:11:34;;;;;;;12.20;9.25;;;;;;;8.45;100.00;92934.47;5029569;28;20392;-78
2022/04/17 00:14:01;;;;;;;9.88;8.43;;;;;;;8.41;100.00;92922.09;5029626;28;20037;-78
2022/04/17 00:16:27;;;;;;;11.02;8.85;;;;;;;8.29;100.00;92926.28;5029644;28;20060;-79
2022/04/17 00:18:54;;;;;;;11.05;8.60;;;;;;;8.30;100.00;92917.59;5029164;28;20050;-79
2022/04/17 00:21:22;;;;;;;12.63;9.18;;;;;;;8.41;100.00;92923.84;5029177;28;20140;-78
2022/04/17 00:23:51;;;;;;;11.25;8.68;;;;;;;8.35;100.00;92924.66;5029148;28;20046;-78
2022/04/17 00:26:17;;;;;;;12.55;8.77;;;;;;;8.44;100.00;92915.78;5029154;28;20432;-78
2022/04/17 00:28:44;;;;;;;11.55;8.68;;;;;;;8.35;100.00;92912.66;5028895;28;20056;-78
2022/04/17 00:31:11;;;;;;;11.15;9.25;;;;;;;8.24;100.00;92903.06;5029044;28;20485;-78
2022/04/17 00:33:38;;;;;;;11.20;9.25;;;;;;;8.17;100.00;92915.88;5028846;28;20044;-79
2022/04/17 00:36:05;;;;;;;11.85;9.48;;;;;;;8.18;100.00;92893.66;5028805;28;20053;-79
2022/04/17 00:38:32;;;;;;;11.05;9.30;;;;;;;8.00;100.00;92887.38;5029073;28;20370;-80
2022/04/17 00:41:00;;;;;;;11.63;9.02;;;;;;;7.96;100.00;92887.00;5028567;28;20088;-79
2022/04/17 00:43:30;;;;;;;13.60;9.10;;;;;;;8.05;100.00;92908.03;5029106;28;20100;-80
2022/04/17 00:45:57;;;;;;;12.30;9.07;;;;;;;8.05;100.00;92907.25;5029008;28;20152;-80
2022/04/17 00:48:24;;;;;;;11.82;8.90;;;;;;;7.86;100.00;92884.88;5028711;28;20053;-80
2022/04/17 00:50:53;;;;;;;12.68;8.77;;;;;;;7.93;100.00;92901.97;5028812;28;20543;-79
2022/04/17 00:53:22;;;;;;;11.68;8.57;;;;;;;7.90;100.00;92895.47;5029093;28;20046;-79
2022/04/17 00:55:49;;;;;;;11.13;8.70;;;;;;;7.94;100.00;92893.31;5028749;28;20099;-78
2022/04/17 00:58:18;;;;;;;11.05;8.13;;;;;;;7.70;100.00;92852.06;5028615;28;20485;-78
2022/04/17 01:00:45;;;;;;;13.32;8.75;;;;;;;7.98;100.00;92892.72;5029000;28;20302;-78
2022/04/17 01:03:13;;;;;;;12.55;7.93;;;;;;;7.95;100.00;92902.53;5028752;28;20042;-78
2022/04/17 01:05:42;;;;;;;8.90;7.15;;;;;;;7.72;100.00;92873.09;5028645;28;20064;-79
2022/04/17 01:08:10;;;;;;;10.05;8.27;;;;;;;7.78;100.00;92877.41;5028431;28;20045;-79
2022/04/17 01:10:36;;;;;;;9.75;8.13;;;;;;;7.69;100.00;92879.38;5028257;28;20432;-78
2022/04/17 01:13:04;;;;;;;12.18;7.55;;;;;;;7.62;100.00;92870.94;5031323;28;20154;-79
2022/04/17 01:15:33;;;;;;;10.20;8.07;;;;;;;7.72;100.00;92865.41;5032029;28;20042;-79
2022/04/17 01:18:00;;;;;;;12.20;8.35;;;;;;;7.69;100.00;92869.16;5032380;28;20049;-79
2022/04/17 01:20:27;;;;;;;9.88;7.43;;;;;;;7.75;100.00;92878.63;5032059;28;20042;-79
2022/04/17 01:26:56;;;;;;;10.38;8.15;;;;;;;7.67;100.00;92848.13;5032125;28;20136;-79
2022/04/17 01:28:28;;;;;;;11.57;8.75;;;;;;;7.72;100.00;92873.88;5032075;28;20119;-78
2022/04/17 01:30:55;;;;;;;10.27;8.32;;;;;;;7.68;100.00;92870.16;5032288;28;20049;-79
2022/04/17 01:33:22;;;;;;;12.65;8.25;;;;;;;7.48;100.00;92840.31;5032110;28;20095;-79
2022/04/17 01:35:50;;;;;;;12.85;9.00;;;;;;;7.60;100.00;92875.50;5031885;28;20053;-79
2022/04/17 01:38:18;;;;;;;10.57;8.75;;;;;;;7.54;100.00;92859.16;5031977;28;20358;-79
2022/04/17 01:40:45;;;;;;;10.98;8.98;;;;;;;7.44;100.00;92844.25;5032208;28;20041;-78
2022/04/17 01:43:12;;;;;;;15.00;9.00;;;;;;;7.37;100.00;92846.03;5031854;28;20092;-78
2022/04/17 01:45:39;;;;;;;11.40;9.18;;;;;;;7.48;100.00;92862.50;5031517;28;20041;-78
2022/04/17 01:48:06;;;;;;;12.65;9.80;;;;;;;7.25;100.00;92847.59;5031643;28;20064;-78
2022/04/17 01:50:33;;;;;;;12.05;9.32;;;;;;;7.37;100.00;92858.81;5031846;28;20041;-79
2022/04/17 01:53:00;;;;;;;12.40;9.75;;;;;;;7.36;100.00;92859.78;5031860;28;20041;-79
2022/04/17 01:55:29;;;;;;;13.13;9.80;;;;;;;7.32;100.00;92861.94;5031782;28;20134;-78
2022/04/17 01:57:57;;;;;;;12.60;9.70;;;;;;;7.31;100.00;92873.16;5031619;28;20053;-79
2022/04/17 02:00:25;;;;;;;13.02;10.27;;;;;;;7.25;100.00;92862.91;5031674;28;20132;-79
2022/04/17 02:02:52;;;;;;;13.20;10.23;;;;;;;7.33;100.00;92873.72;5031651;28;20099;-79
2022/04/17 02:05:19;;;;;;;11.88;9.38;;;;;;;7.19;100.00;92855.06;5030973;28;20054;-80
2022/04/17 02:07:46;;;;;;;13.60;10.02;;;;;;;7.31;100.00;92860.38;5031511;28;20052;-81
2022/04/17 02:10:19;;;;;;;11.63;9.05;;;;;;;7.28;100.00;92842.91;5031276;28;20049;-82
2022/04/17 02:12:47;;;;;;;12.00;9.35;;;;;;;7.21;100.00;92835.22;5031519;28;20041;-81
2022/04/17 02:15:14;;;;;;;10.82;8.55;;;;;;;7.38;100.00;92847.59;5031457;28;20092;-82
2022/04/17 02:17:41;;;;;;;11.93;9.43;;;;;;;7.34;100.00;92856.63;5031507;28;20045;-82
2022/04/17 02:20:10;;;;;;;10.85;8.75;;;;;;;7.27;100.00;92825.97;5030904;28;20152;-82
2022/04/17 02:22:37;;;;;;;11.45;8.77;;;;;;;7.29;100.00;92841.91;5031071;28;20095;-82
2022/04/17 02:25:04;;;;;;;13.40;9.60;;;;;;;7.24;100.00;92826.38;5030480;28;20046;-81
2022/04/17 02:27:31;;;;;;;12.30;9.25;;;;;;;7.10;100.00;92805.19;5030588;28;20061;-81
2022/04/17 02:29:59;;;;;;;12.23;9.98;;;;;;;7.31;100.00;92839.94;5030591;28;20049;-81
2022/04/17 02:32:25;;;;;;;13.20;9.90;;;;;;;7.26;100.00;92828.75;5030778;28;20484;-81
2022/04/17 02:34:52;;;;;;;12.68;9.85;;;;;;;7.26;100.00;92833.88;5031278;28;20396;-81
2022/04/17 02:37:20;;;;;;;12.40;9.27;;;;;;;7.08;100.00;92805.38;5030967;28;20052;-82
2022/04/17 02:39:47;;;;;;;13.43;8.85;;;;;;;7.28;100.00;92834.44;5030760;28;20080;-80
2022/04/17 02:42:14;;;;;;;13.38;9.50;;;;;;;7.29;100.00;92836.81;5030633;28;20095;-82
2022/04/17 02:44:41;;;;;;;10.38;8.07;;;;;;;7.25;100.00;92837.38;5031045;28;20041;-81
2022/04/17 02:49:54;;;;;;;13.68;9.52;;;;;;;7.21;100.00;92837.78;5030669;28;20060;-79
2022/04/17 02:52:21;;;;;;;10.57;8.25;;;;;;;7.19;100.00;92837.19;5031008;28;20041;-80
2022/04/17 02:54:48;;;;;;;14.13;9.38;;;;;;;7.19;100.00;92823.63;5030397;28;20404;-80
2022/04/17 02:57:16;;;;;;;11.85;8.98;;;;;;;7.19;100.00;92821.84;5030546;28;20053;-78
2022/04/17 02:59:42;;;;;;;10.77;8.70;;;;;;;7.14;100.00;92816.59;5030891;28;20041;-79
2022/04/17 03:07:39;;;;;;;11.52;8.77;;;;;;;7.01;100.00;92802.03;5031188;28;19943;-80
2022/04/17 03:10:07;;;;;;;11.07;9.40;;;;;;;6.92;100.00;92785.34;5030189;28;20053;-80
2022/04/17 03:12:37;;;;;;;12.05;9.25;;;;;;;6.92;100.00;92798.13;5030461;28;20041;-81
2022/04/17 03:15:04;;;;;;;12.68;8.73;;;;;;;6.93;100.00;92795.38;5030040;28;20620;-80
2022/04/17 03:17:32;;;;;;;11.15;8.98;;;;;;;6.78;100.00;92772.59;5030200;28;20045;-80
2022/04/17 03:19:59;;;;;;;11.98;8.95;;;;;;;6.88;100.00;92800.28;5029727;28;20049;-79
2022/04/17 03:22:26;;;;;;;10.90;8.73;;;;;;;6.88;100.00;92802.84;5029552;28;20048;-79
2022/04/17 03:24:53;;;;;;;10.02;8.35;;;;;;;7.00;100.00;92802.25;5029719;28;20492;-79
2022/04/17 03:27:20;;;;;;;11.95;9.00;;;;;;;7.00;100.00;92809.91;5030065;28;20096;-79
2022/04/17 03:29:47;;;;;;;12.55;8.73;;;;;;;6.75;100.00;92779.88;5029954;28;20049;-78
2022/04/17 03:32:14;;;;;;;11.98;9.02;;;;;;;6.92;100.00;92814.22;5029805;28;20045;-79
2022/04/17 03:34:42;;;;;;;13.18;9.40;;;;;;;6.78;100.00;92784.56;5029359;28;20041;-78
2022/04/17 03:37:09;;;;;;;11.77;9.05;;;;;;;6.90;100.00;92815.41;5029918;28;20045;-79
2022/04/17 03:39:36;;;;;;;11.30;8.70;;;;;;;6.68;100.00;92802.81;5029760;28;20053;-79
2022/04/17 03:42:03;;;;;;;14.23;8.98;;;;;;;6.54;100.00;92789.28;5029943;28;20056;-79
2022/04/17 03:44:30;;;;;;;12.23;8.82;;;;;;;6.75;100.00;92813.06;5029955;28;20045;-79
2022/04/17 03:46:56;;;;;;;12.95;8.82;;;;;;;6.80;100.00;92815.78;5029753;28;20174;-79
2022/04/17 03:49:24;;;;;;;11.35;8.82;;;;;;;6.76;100.00;92812.06;5029658;28;20049;-79
2022/04/17 03:51:52;;;;;;;11.30;8.70;;;;;;;6.72;100.00;92816.78;5029561;28;20050;-79
2022/04/17 03:54:19;;;;;;;12.45;9.25;;;;;;;6.67;100.00;92814.78;5029234;28;20041;-80
2022/04/17 03:56:47;;;;;;;10.63;7.88;;;;;;;6.63;100.00;92800.84;5029649;28;20038;-80
2022/04/17 03:59:15;;;;;;;11.43;9.43;;;;;;;6.77;100.00;92814.41;5025801;28;20041;-81
2022/04/17 04:01:41;;;;;;;10.73;8.27;;;;;;;6.73;100.00;92823.44;5027329;28;20481;-81
2022/04/17 04:04:08;;;;;;;10.27;8.63;;;;;;;6.82;100.00;92821.50;5029031;28;20053;-81
2022/04/17 04:06:35;;;;;;;11.80;8.82;;;;;;;6.64;100.00;92806.75;5029011;28;20375;-81
2022/04/17 04:09:04;;;;;;;10.55;8.38;;;;;;;6.64;100.00;92807.53;5029889;28;20051;-82
2022/04/17 04:11:31;;;;;;;10.32;8.40;;;;;;;6.72;100.00;92814.22;5003465;28;20060;-82
2022/04/17 04:13:57;;;;;;;11.88;8.98;;;;;;;6.69;100.00;92817.16;5030607;28;20085;-80
2022/04/17 04:16:24;;;;;;;13.82;9.50;;;;;;;6.66;100.00;92808.13;5022333;28;20110;-80
2022/04/17 04:18:51;;;;;;;10.80;8.90;;;;;;;6.58;100.00;92805.78;5021882;28;20538;-80
2022/04/17 04:21:18;;;;;;;12.25;9.18;;;;;;;6.64;100.00;92797.34;5028269;28;20049;-81
2022/04/17 04:23:45;;;;;;;10.20;8.50;;;;;;;6.73;100.00;92803.03;5029156;28;20045;-81
2022/04/17 04:26:13;;;;;;;10.10;8.45;;;;;;;6.68;100.00;92808.69;5029066;28;20084;-81
2022/04/17 04:28:39;;;;;;;12.38;9.02;;;;;;;6.43;100.00;92788.06;5029011;28;20042;-81
2022/04/17 04:31:07;;;;;;;11.80;8.82;;;;;;;6.62;100.00;92813.81;5029375;28;20509;-80
2022/04/17 04:33:34;;;;;;;11.82;8.68;;;;;;;6.53;100.00;92803.78;5028849;28;20052;-80
2022/04/17 04:36:02;;;;;;;10.80;9.18;;;;;;;6.50;100.00;92805.94;5028928;28;20037;-80
2022/04/17 04:38:29;;;;;;;9.88;8.75;;;;;;;6.54;100.00;92796.94;5029298;28;20045;-80
2022/04/17 04:40:56;;;;;;;10.90;8.40;;;;;;;6.55;100.00;92801.84;5028758;28;20057;-79
2022/04/17 04:43:24;;;;;;;12.23;9.10;;;;;;;6.60;100.00;92796.16;5029164;28;20045;-79
2022/04/17 04:46:09;;;;;;;12.82;9.18;;;;;;;6.52;100.00;92801.41;5028763;28;20416;-78
2022/04/17 04:51:22;;;;;;;10.15;8.30;;;;;;;6.36;100.00;92800.84;5032226;28;20733;-78
2022/04/17 04:53:49;;;;;;;12.32;9.43;;;;;;;6.29;100.00;92782.16;5021784;28;20038;-78
2022/04/17 04:56:17;;;;;;;10.20;8.18;;;;;;;6.25;100.00;92794.50;5011208;28;20141;-77
2022/04/17 04:58:45;;;;;;;11.70;9.07;;;;;;;6.17;100.00;92799.00;5012320;28;20049;-77
2022/04/17 05:01:13;;;;;;;12.13;9.70;;;;;;;6.05;100.00;92788.56;5011747;28;20042;-78
2022/04/17 05:03:41;;;;;;;13.90;10.73;;;;;;;6.00;100.00;92777.16;5011991;28;20046;-79
2022/04/17 05:06:08;;;;;;;12.25;9.48;;;;;;;6.19;100.00;92797.03;5011633;28;20038;-79
2022/04/17 05:08:35;;;;;;;10.63;9.38;;;;;;;6.06;100.00;92792.72;5032058;28;20052;-79
2022/04/17 05:11:02;;;;;;;13.32;8.85;;;;;;;6.06;100.00;92797.81;5031321;28;20053;-79
2022/04/17 05:13:28;;;;;;;12.65;10.20;;;;;;;5.79;100.00;92759.47;5032097;28;20049;-83
2022/04/17 05:15:57;;;;;;;10.75;8.93;;;;;;;5.94;100.00;92793.25;5032404;28;20385;-84
2022/04/17 05:18:23;;;;;;;13.10;10.35;;;;;;;5.93;100.00;92789.09;5031522;28;20041;-84
2022/04/17 05:20:51;;;;;;;11.32;9.63;;;;;;;5.91;100.00;92790.25;5032040;28;20052;-83
2022/04/17 05:23:19;;;;;;;15.57;11.82;;;;;;;5.87;100.00;92789.84;5031854;28;20045;-84
2022/04/17 05:25:48;;;;;;;11.13;9.13;;;;;;;5.74;100.00;92758.25;5031631;28;21093;-85
2022/04/17 05:28:15;;;;;;;12.85;10.43;;;;;;;5.91;100.00;92791.06;5031616;28;20037;-84
2022/04/17 05:30:42;;;;;;;14.50;11.70;;;;;;;6.00;100.00;92789.13;5032294;28;20566;-84
2022/04/17 05:33:11;;;;;;;9.98;8.35;;;;;;;5.77;100.00;92772.38;5032496;28;20381;-84
2022/04/17 05:35:38;;;;;;;8.73;7.60;;;;;;;5.66;100.00;92772.94;5031981;28;20389;-84
2022/04/17 05:38:06;;;;;;;9.20;7.53;;;;;;;5.93;100.00;92798.53;5031813;28;20049;-83
2022/04/17 05:40:36;;;;;;;11.15;8.88;;;;;;;5.79;100.00;92764.56;5030960;28;20053;-84
2022/04/17 05:43:03;;;;;;;10.15;7.70;;;;;;;5.93;100.00;92803.63;5031320;28;20045;-84
2022/04/17 05:45:30;;;;;;;9.73;7.82;;;;;;;5.65;100.00;92754.28;5031175;28;20485;-82
2022/04/17 05:47:58;;;;;;;9.77;8.07;;;;;;;6.05;100.00;92788.56;5031301;28;20052;-83
2022/04/17 05:50:27;;;;;;;10.30;8.80;;;;;;;5.97;100.00;92797.94;5031578;28;20064;-82
2022/04/17 05:52:54;;;;;;;24.33;21.83;;;;;;;6.09;100.00;92787.22;5031874;28;20116;-83
2022/04/17 05:55:21;;;;;;;9.63;7.53;;;;;;;5.86;100.00;92784.00;5032400;28;20056;-82
2022/04/17 05:57:48;;;;;;;20.38;18.27;;;;;;;5.91;100.00;92773.22;5031100;28;20143;-80
2022/04/17 06:00:16;;;;;;;12.43;10.23;;;;;;;6.07;100.00;92786.63;5029902;28;20053;-80
2022/04/17 06:02:44;;;;;;;12.40;10.32;;;;;;;6.03;100.00;92793.88;5030116;28;20045;-81
2022/04/17 06:05:11;;;;;;;20.85;17.52;;;;;;;6.00;100.00;92791.66;5031249;28;20057;-82
2022/04/17 06:07:40;;;;;;;12.63;9.88;;;;;;;5.79;100.00;92764.56;5031597;28;20164;-81
2022/04/17 06:10:09;;;;;;;17.60;13.90;;;;;;;5.85;100.00;92777.31;5031468;28;20452;-81
2022/04/17 06:12:36;;;;;;;18.70;16.67;;;;;;;5.81;100.00;92771.03;5031385;28;20045;-82
2022/04/17 06:15:04;;;;;;;31.70;27.80;;;;;;;5.86;100.00;92773.00;5031064;28;20045;-82
2022/04/17 06:17:37;;;;;;;25.35;20.23;;;;;;;5.85;100.00;92777.31;5031248;28;20403;-82
2022/04/17 06:20:06;;;;;;;18.83;16.92;;;;;;;5.83;100.00;92781.03;5028212;28;20045;-81
2022/04/17 06:22:34;;;;;;;15.38;12.77;;;;;;;5.86;100.00;92781.44;5029110;28;20041;-82
2022/04/17 06:25:04;;;;;;;13.45;10.63;;;;;;;5.82;100.00;92777.69;5030400;28;20103;-82
2022/04/17 06:27:37;;;;;;;11.73;9.75;;;;;;;5.29;100.00;92729.84;5030921;28;20103;-81
2022/04/17 06:30:10;;;;;;;12.25;9.77;;;;;;;5.73;100.00;92769.44;5031102;28;20550;-81
2022/04/17 06:32:37;;;;;;;14.63;11.38;;;;;;;5.81;100.00;92781.22;5030658;28;20124;-81
2022/04/17 06:35:05;;;;;;;10.82;9.73;;;;;;;5.80;100.00;92776.31;5030669;28;20476;-82
2022/04/17 06:37:32;;;;;;;12.30;9.82;;;;;;;5.66;100.00;92755.09;5030629;28;20056;-81
2022/04/17 06:39:59;;;;;;;10.50;8.02;;;;;;;5.75;100.00;92787.09;5030534;28;20053;-81
2022/04/17 06:42:27;;;;;;;11.13;9.65;;;;;;;5.77;100.00;92797.88;5030932;28;20052;-80
2022/04/17 06:44:54;;;;;;;17.33;12.07;;;;;;;5.67;100.00;92782.13;5030958;28;20440;-82
2022/04/17 06:47:21;;;;;;;12.15;9.38;;;;;;;5.69;100.00;92772.56;5030872;28;20041;-82
2022/04/17 06:49:47;;;;;;;16.25;9.40;;;;;;;5.78;100.00;92781.59;5030626;28;20140;-82
2022/04/17 06:52:14;;;;;;;16.75;10.90;;;;;;;5.73;100.00;92792.38;5030133;28;20037;-81
2022/04/17 06:54:41;;;;;;;10.65;8.98;;;;;;;5.69;100.00;92780.22;5030317;28;20489;-81
2022/04/17 06:57:08;;;;;;;11.02;8.23;;;;;;;5.62;100.00;92769.97;5030610;28;20540;-81
2022/04/17 06:59:36;;;;;;;10.20;8.25;;;;;;;5.69;100.00;92764.91;5030742;28;20052;-81
2022/04/17 07:02:03;;;;;;;9.73;7.32;;;;;;;5.86;100.00;92778.09;5030585;28;20091;-82
2022/04/17 07:04:30;;;;;;;10.23;8.32;;;;;;;6.02;100.00;92787.19;5030128;28;20394;-81
2022/04/17 07:06:56;;;;;;;8.27;6.60;;;;;;;5.77;100.00;92762.19;5029925;28;20049;-82
2022/04/17 07:09:23;;;;;;;8.75;6.60;;;;;;;5.89;100.00;92786.16;5029041;28;20045;-82
2022/04/17 07:11:51;;;;;;;8.00;6.45;;;;;;;6.02;100.00;92792.28;5030219;28;20107;-81
2022/04/17 07:14:18;;;;;;;6.35;5.60;;;;;;;6.03;100.00;92796.44;5029880;28;20045;-81
2022/04/17 07:16:47;;;;;;;8.55;5.88;;;;;;;6.04;100.00;92782.69;5030439;28;20087;-81
2022/04/17 07:19:16;;;;;;;6.97;5.50;;;;;;;6.01;100.00;92776.19;5027789;28;20053;-81
2022/04/17 07:21:43;;;;;;;7.43;5.50;;;;;;;6.06;100.00;92785.84;5027872;28;20077;-81
2022/04/17 07:24:10;;;;;;;8.18;6.00;;;;;;;6.12;100.00;92800.34;5028742;28;20046;-81
2022/04/17 07:26:36;;;;;;;6.10;5.30;;;;;;;5.95;100.00;92784.59;5029620;28;20045;-82
2022/04/17 07:29:04;;;;;;;8.82;6.35;;;;;;;6.21;100.00;92790.78;5029829;28;20076;-81
2022/04/17 07:31:31;;;;;;;8.40;6.13;;;;;;;6.20;100.00;92768.03;5029653;28;20045;-82
2022/04/17 07:34:00;;;;;;;5.72;5.07;;;;;;;6.39;100.00;92786.91;5029438;28;20128;-79
2022/04/17 07:36:26;;;;;;;5.60;4.55;;;;;;;6.39;100.00;92785.13;5029795;28;20042;-78
2022/04/17 07:38:53;;;;;;;5.60;4.45;;;;;;;6.40;100.00;92791.78;5029800;28;20045;-78
2022/04/17 07:41:20;;;;;;;6.63;5.50;;;;;;;6.38;100.00;92787.84;5022762;28;20049;-78
2022/04/17 07:43:47;;;;;;;5.63;4.55;;;;;;;6.35;100.00;92786.47;5029620;28;20045;-78
2022/04/17 07:46:14;;;;;;;5.57;4.35;;;;;;;6.39;100.00;92786.91;5029229;28;20128;-79
2022/04/17 07:48:41;;;;;;;5.75;4.43;;;;;;;6.26;100.00;92757.06;5029372;28;20042;-79
2022/04/17 07:51:09;;;;;;;6.20;5.07;;;;;;;6.52;100.00;92770.78;5029414;28;20057;-79
2022/04/17 07:53:36;;;;;;;4.22;3.50;;;;;;;6.39;100.00;92774.91;5029393;28;20049;-78
2022/04/17 07:56:03;;;;;;;4.68;3.38;;;;;;;6.24;100.00;92759.00;5029166;28;20541;-79
2022/04/17 07:58:34;;;;;;;4.28;3.70;;;;;;;6.47;100.00;92783.38;5029476;28;20115;-80
2022/04/17 08:01:10;;;;;;;3.75;3.10;;;;;;;6.32;100.00;92783.53;5029169;28;20136;-80
2022/04/17 08:03:46;;;;;;;;;;;;;;;6.41;100.00;92770.41;5029777;28;20045;-80
2022/04/17 08:06:16;;;;;;;5.18;3.88;;;;;;;6.46;100.00;92769.81;5029142;28;19917;-79
2022/04/17 08:08:44;;;;;;;4.65;3.67;;;;;;;6.19;100.00;92728.19;5029375;28;20076;-80
2022/04/17 08:11:12;;;;;;;7.68;3.95;;;;;;;6.30;100.00;92739.59;5028874;28;20046;-81
2022/04/17 08:13:39;;;;;;;5.00;4.00;;;;;;;6.37;100.00;92753.13;5028990;28;20099;-80
2022/04/17 08:16:08;;;;;;;7.45;4.07;;;;;;;6.56;100.00;92769.44;5029191;28;20092;-80
2022/04/17 08:18:36;;;;;;;5.35;3.38;;;;;;;6.46;100.00;92771.59;5029072;28;20552;-80
2022/04/17 08:21:04;;;;;;;5.53;3.92;;;;;;;6.54;100.00;92761.19;5030672;28;20046;-80
2022/04/17 08:23:34;;;;;;;7.18;5.35;;;;;;;6.45;100.00;92755.50;5033453;28;20511;-80
2022/04/17 08:26:03;;;;;;;7.55;5.20;;;;;;;6.53;100.00;92750.19;5033439;28;20041;-79
2022/04/17 08:28:30;;;;;;;8.05;4.68;;;;;;;6.47;100.00;92762.97;5033078;28;20477;-79
2022/04/17 08:30:57;;;;;;;5.65;4.13;;;;;;;6.44;100.00;92764.16;5032852;28;20554;-79
2022/04/17 08:33:24;;;;;;;6.35;4.88;;;;;;;6.52;100.00;92773.34;5033043;28;20046;-79
2022/04/17 08:35:51;;;;;;;5.88;4.38;;;;;;;6.49;100.00;92771.97;5033339;28;20179;-79
2022/04/17 08:38:19;;;;;;;6.88;4.00;;;;;;;6.32;100.00;92761.38;5033262;28;20063;-79
2022/04/17 08:40:48;;;;;;;6.15;4.88;;;;;;;6.14;100.00;92741.53;5032986;28;20045;-79
2022/04/17 08:43:18;;;;;;;5.60;3.47;;;;;;;5.98;100.00;92707.72;5032863;28;20046;-79
2022/04/17 08:45:49;;;;;;;5.88;4.32;;;;;;;6.40;100.00;92761.19;5033238;28;20049;-79
2022/04/17 08:48:17;;;;;;;5.72;4.22;;;;;;;6.35;100.00;92752.53;5032956;28;20072;-79
2022/04/17 08:50:44;;;;;;;4.93;3.90;;;;;;;6.23;100.00;92737.81;5033968;28;20052;-80
2022/04/17 08:53:15;;;;;;;3.88;3.47;;;;;;;6.28;100.00;92732.94;5019039;28;20049;-79
2022/04/17 08:55:43;;;;;;;4.43;3.42;;;;;;;6.55;100.00;92755.09;5042108;28;20055;-80
2022/04/17 08:58:12;;;;;;;3.35;2.88;;;;;;;6.33;100.00;92734.88;5032638;28;20045;-80
2022/04/17 09:00:39;;;;;;;3.65;2.83;;;;;;;6.40;100.00;92748.41;5032732;28;20042;-79
2022/04/17 09:03:09;;;;;;;3.80;3.03;;;;;;;6.61;100.00;92748.44;5032460;28;20049;-80
2022/04/17 09:05:36;;;;;;;5.07;3.67;;;;;;;6.76;100.00;92751.56;5030183;28;20451;-80
2022/04/17 09:08:13;;;;;;;6.15;4.00;;;;;;;6.60;100.00;92745.09;5030544;28;20481;-80
2022/04/17 09:10:40;;;;;;;4.03;3.17;;;;;;;6.60;100.00;92739.19;5031888;28;20049;-80
2022/04/17 09:13:07;;;;;;;5.10;3.65;;;;;;;6.58;100.00;92753.94;5032257;28;20087;-80
2022/04/17 09:15:37;;;;;;;3.78;2.85;;;;;;;6.48;100.00;92721.16;5032193;28;20128;-80
2022/04/17 09:18:07;;;;;;;5.25;3.75;;;;;;;6.66;100.00;92740.97;5032496;28;20038;-80
2022/04/17 09:20:34;;;;;;;5.43;4.38;;;;;;;6.61;100.00;92746.66;5032077;28;20520;-80
2022/04/17 09:23:02;;;;;;;5.72;4.03;;;;;;;6.67;100.00;92740.00;5032050;28;20049;-80
2022/04/17 09:25:29;;;;;;;5.07;3.97;;;;;;;6.77;100.00;92729.38;5032339;28;20041;-80
2022/04/17 09:27:58;;;;;;;4.57;3.58;;;;;;;6.71;100.00;92720.75;5031885;28;20068;-80
2022/04/17 09:30:26;;;;;;;4.32;3.10;;;;;;;6.63;100.00;92716.63;5031804;28;20576;-80
2022/04/17 09:32:54;;;;;;;4.80;3.55;;;;;;;6.80;100.00;92721.31;5031363;28;20057;-80
2022/04/17 09:35:23;;;;;;;5.65;4.03;;;;;;;7.03;100.00;92715.03;5031739;28;20050;-80
2022/04/17 09:37:50;;;;;;;4.80;3.13;;;;;;;7.13;100.00;92712.06;5032087;28;20118;-80
2022/04/17 09:40:20;;;;;;;5.50;3.30;;;;;;;6.88;100.00;92682.03;5031666;28;20160;-80
2022/04/17 09:42:49;;;;;;;5.70;3.78;;;;;;;7.08;100.00;92710.06;5032003;28;20041;-80
2022/04/17 09:45:15;;;;;;;6.57;4.35;;;;;;;7.10;100.00;92700.47;5031809;28;20042;-81
2022/04/17 09:47:57;;;;;;;8.75;4.45;;;;;;;7.00;100.00;92688.13;5031636;28;20046;-80
2022/04/17 09:50:32;;;;;;;10.00;5.20;;;;;;;7.05;100.00;92693.38;5031187;28;20084;-80
2022/04/17 09:53:03;;;;;;;7.53;5.30;;;;;;;7.05;100.00;92708.72;5031616;28;20051;-80
2022/04/17 09:55:31;;;;;;;6.63;4.53;;;;;;;7.12;100.00;92701.03;5031400;28;20049;-80
2022/04/17 09:57:59;;;;;;;5.90;3.60;;;;;;;7.19;100.00;92699.25;5031936;28;20088;-80
2022/04/17 10:00:27;;;;;;;4.30;3.13;;;;;;;7.27;100.00;92702.59;5031926;28;20045;-81
2022/04/17 10:02:54;;;;;;;3.50;2.45;;;;;;;7.00;100.00;92707.75;5031732;28;20049;-80
2022/04/17 10:05:22;;;;;;;4.10;2.67;;;;;;;6.86;100.00;92695.03;5031703;28;20041;-80
2022/04/17 10:07:50;;;;;;;5.82;3.78;;;;;;;6.84;100.00;92683.44;5031576;28;20046;-80
2022/04/17 10:10:18;;;;;;;4.82;3.50;;;;;;;6.81;100.00;92682.84;5031150;28;20095;-80
2022/04/17 10:12:46;;;;;;;5.47;4.32;;;;;;;7.00;100.00;92684.78;5031472;28;20045;-80
2022/04/17 10:15:14;;;;;;;8.82;3.72;;;;;;;6.76;100.00;92641.03;5031120;28;20052;-80
2022/04/17 10:17:45;;;;;;;3.85;2.90;;;;;;;6.96;100.00;92681.84;5031528;28;20050;-80
2022/04/17 10:20:13;;;;;;;3.78;2.90;;;;;;;6.99;100.00;92690.88;5031247;28;20049;-80
2022/04/17 10:22:47;;;;;;;4.90;3.30;;;;;;;6.49;100.00;92638.53;5031018;28;20088;-80
2022/04/17 10:25:17;;;;;;;5.03;3.80;;;;;;;6.88;100.00;92680.28;5030913;28;20041;-80
2022/04/17 10:27:47;;;;;;;7.97;4.95;;;;;;;6.75;100.00;92683.63;5030930;28;20119;-80
2022/04/17 10:30:16;;;;;;;5.45;3.70;;;;;;;6.54;100.00;92643.81;5031179;28;20093;-80
2022/04/17 10:33:28;;;;;;;9.05;6.25;;;;;;;6.80;100.00;92667.72;5030638;28;20053;-80
2022/04/17 10:36:28;;;;;;;10.18;6.57;;;;;;;6.54;100.00;92661.69;4969581;28;20051;-80
2022/04/17 10:39:12;;;;;;;12.15;5.18;;;;;;;6.25;100.00;92671.31;5025987;28;20047;-79
2022/04/17 10:41:40;;;;;;;9.38;5.85;;;;;;;6.08;100.00;92658.94;5030802;28;20052;-79
2022/04/17 10:44:10;;;;;;;7.15;4.38;;;;;;;6.00;100.00;92675.19;5029840;28;20111;-80
2022/04/17 10:46:49;;;;;;;4.45;3.17;;;;;;;5.87;100.00;92673.41;5030412;28;20045;-79
2022/04/17 10:49:20;;;;;;;5.72;3.60;;;;;;;5.87;100.00;92650.47;5030536;28;20049;-79
2022/04/17 10:51:52;;;;;;;6.38;4.28;;;;;;;5.96;100.00;92668.09;5030503;28;20393;-79
2022/04/17 10:54:21;;;;;;;4.70;3.13;;;;;;;5.83;100.00;92663.81;5030473;28;20389;-79
2022/04/17 10:57:01;;;;;;;5.95;3.80;;;;;;;5.71;100.00;92638.88;5030312;28;20045;-79
2022/04/17 10:59:30;;;;;;;4.60;2.60;;;;;;;5.56;100.00;92620.44;5030286;28;20489;-79
2022/04/17 11:02:02;;;;;;;4.53;3.50;;;;;;;5.79;100.00;92653.19;5029950;28;20046;-78
2022/04/17 11:04:30;;;;;;;3.75;2.88;;;;;;;5.64;100.00;92624.56;5030423;28;20058;-80
2022/04/17 11:07:27;;;;;;;6.13;4.18;;;;;;;5.73;100.00;92647.09;5030198;28;20046;-80
2022/04/17 11:10:22;;;;;;;4.03;3.00;;;;;;;5.73;100.00;92643.75;5029504;28;20128;-79
2022/04/17 11:12:52;;;;;;;6.82;4.22;;;;;;;5.68;100.00;92643.56;5010387;28;20096;-79
2022/04/17 11:15:30;;;;;;;5.22;4.15;;;;;;;5.64;100.00;92642.41;5010123;28;20556;-79
2022/04/17 11:18:02;;;;;;;6.15;5.20;;;;;;;5.70;100.00;92646.72;5010197;28;20520;-78
2022/04/17 11:20:30;;;;;;;3.88;3.40;;;;;;;5.63;100.00;92641.59;5010448;28;20187;-79
2022/04/17 11:22:57;;;;;;;6.45;5.30;;;;;;;5.70;100.00;92647.47;5010054;28;20069;-79
2022/04/17 11:25:28;;;;;;;4.72;3.42;;;;;;;5.85;100.00;92657.53;5010525;28;20045;-80
2022/04/17 11:27:55;;;;;;;5.07;3.88;;;;;;;5.60;100.00;92639.44;5010523;28;20104;-80
2022/04/17 11:30:35;;;;;;;16.15;9.77;;;;;;;5.64;100.00;92644.94;5010456;28;20173;-80
2022/04/17 11:33:06;;;;;;;6.85;4.65;;;;;;;5.78;100.00;92646.53;5010064;28;20489;-80
2022/04/17 11:35:34;;;;;;;6.75;5.22;;;;;;;5.67;100.00;92655.53;5009997;28;20092;-79
2022/04/17 11:38:07;;;;;;;7.47;5.45;;;;;;;5.55;100.00;92636.69;5010274;28;20037;-79
2022/04/17 11:40:37;;;;;;;4.75;4.25;;;;;;;5.75;100.00;92644.38;5010318;28;20159;-79
2022/04/17 11:43:10;;;;;;;6.72;4.80;;;;;;;5.80;100.00;92646.34;5010041;28;20057;-80
2022/04/17 11:45:37;;;;;;;4.43;3.60;;;;;;;5.38;100.00;92619.22;5010085;28;20048;-80
2022/04/17 11:48:07;;;;;;;5.25;4.50;;;;;;;5.53;100.00;92641.97;5010165;28;20042;-80
2022/04/17 11:50:34;;;;;;;6.60;4.85;;;;;;;5.52;100.00;92645.50;5024414;28;20489;-79